Terminal Aerodrome Forecast
Issued by NWS Atlanta, GA

Home | Current Version | Previous Version | Text Only | Print | Product List | Glossary On
Versions: 1 2 3 4 5 6 7 8 9 10 11 12 13 14 15 16 17 18 19 20 21 22 23 24 25 26 27 28 29 30 31 32 33 34 35 36 37 38 39
099
FTUS42 KFFC 222333
TAFATL
TAF
KATL 222333Z 2300/2406 08009KT P6SM BKN030
     FM230500 07006KT P6SM SCT006 BKN015
     FM230900 08006KT 4SM BR OVC005
     FM231500 10006KT P6SM OVC008
     FM231700 10007KT P6SM BKN015
     FM231900 10007KT P6SM SCT040
     FM240000 12005KT P6SM FEW250=

USA.gov is the U.S. government's official web portal to all federal, state and local government web resources and services.